Lady Alliaura — FGG8490 — position and weather

sailwx.info

Track history (hours):
 
Tides and Currents Weather Stations Pressure Air Temp Water Temp Dewpoint Dewpoint Depression Visibility Wind Speed Wind Dir Waves Ship Positions

Lady Alliaura

Last reported at 2017-Dec-14 14:56 UTC. Time now 2017-Dec-15 12:11 UTC.
Position N 18°04' W 063°05'.

Length 22 m.

Type: Sailing vessel. MMSI: 227055470.

Date/timePositionNaut miles runAvg speedWind from/ knotsBaromVisibWave heightAir tempDewpointWater temp
2017-Dec-14 14:56N 18°04' W 063°05'0 0.0
2017-Dec-14 14:22N 18°04' W 063°05'0 0.0
2017-Dec-13 23:39N 18°04' W 063°05'0 0.0
2017-Dec-13 23:27N 18°04' W 063°05'1 2.5
2017-Dec-13 22:54N 18°05' W 063°06'4 7.3
2017-Dec-13 22:24N 18°04' W 063°10'3 8.5
2017-Dec-13 22:00N 18°02' W 063°08'5 9.0
2017-Dec-13 21:29N 17°58' W 063°05'5 8.6
2017-Dec-13 20:54N 17°54' W 063°01'78 8.5
2017-Dec-13 11:42N 16°47' W 062°19'156 8.5
2017-Dec-12 17:26N 14°28' W 061°05'4 8.6
2017-Dec-12 16:58N 14°27' W 061°01'4 8.9
2017-Dec-12 16:30N 14°27' W 060°57'4 8.0
2017-Dec-12 16:01N 14°27' W 060°53'1 2.6
2017-Dec-12 15:29N 14°28' W 060°52'0 0.0
2017-Dec-12 14:59N 14°28' W 060°52'0 0.3
2017-Dec-12 14:28N 14°28' W 060°52'0 0.0
2017-Dec-12 13:58N 14°28' W 060°52'  
Track history (hours):
 
Tides and Currents Weather Stations Pressure Air Temp Water Temp Dewpoint Dewpoint Depression Visibility Wind Speed Wind Dir Waves Ship Positions

Lady Alliaura

Last reported at 2017-Dec-14 14:56 UTC. Time now 2017-Dec-15 12:11 UTC.
Position N 18°04' W 063°05'.

Length 22 m.

Type: Sailing vessel. MMSI: 227055470.

Date/timePositionNaut miles runAvg speedWind from/ knotsBaromVisibWave heightAir tempDewpointWater temp
2017-Dec-14 14:56N 18°04' W 063°05'0 0.0
2017-Dec-14 14:22N 18°04' W 063°05'0 0.0
2017-Dec-13 23:39N 18°04' W 063°05'0 0.0
2017-Dec-13 23:27N 18°04' W 063°05'1 2.5
2017-Dec-13 22:54N 18°05' W 063°06'4 7.3
2017-Dec-13 22:24N 18°04' W 063°10'3 8.5
2017-Dec-13 22:00N 18°02' W 063°08'5 9.0
2017-Dec-13 21:29N 17°58' W 063°05'5 8.6
2017-Dec-13 20:54N 17°54' W 063°01'78 8.5
2017-Dec-13 11:42N 16°47' W 062°19'156 8.5
2017-Dec-12 17:26N 14°28' W 061°05'4 8.6
2017-Dec-12 16:58N 14°27' W 061°01'4 8.9
2017-Dec-12 16:30N 14°27' W 060°57'4 8.0
2017-Dec-12 16:01N 14°27' W 060°53'1 2.6
2017-Dec-12 15:29N 14°28' W 060°52'0 0.0
2017-Dec-12 14:59N 14°28' W 060°52'0 0.3
2017-Dec-12 14:28N 14°28' W 060°52'0 0.0
2017-Dec-12 13:58N 14°28' W 060°52'  

Dump ship's entire track history